sensor_id;sensor_type;location;lat;lon;timestamp;P1;durP1;ratioP1;P2;durP2;ratioP2
49296;SDS011;35163;48.878;18.040;2022-10-16T00:00:53;20.40;;;8.60;;
49296;SDS011;35163;48.878;18.040;2022-10-16T00:03:20;19.95;;;7.65;;
49296;SDS011;35163;48.878;18.040;2022-10-16T00:05:53;15.45;;;6.25;;
49296;SDS011;35163;48.878;18.040;2022-10-16T00:08:19;16.95;;;7.97;;
49296;SDS011;35163;48.878;18.040;2022-10-16T00:10:46;17.80;;;7.75;;
49296;SDS011;35163;48.878;18.040;2022-10-16T00:13:12;19.00;;;8.45;;
49296;SDS011;35163;48.878;18.040;2022-10-16T00:15:39;14.55;;;7.43;;
49296;SDS011;35163;48.878;18.040;2022-10-16T00:18:05;14.60;;;8.23;;
49296;SDS011;35163;48.878;18.040;2022-10-16T00:20:35;15.35;;;7.53;;
49296;SDS011;35163;48.878;18.040;2022-10-16T00:23:03;14.75;;;7.53;;
49296;SDS011;35163;48.878;18.040;2022-10-16T00:25:31;16.10;;;7.20;;
49296;SDS011;35163;48.878;18.040;2022-10-16T00:27:59;16.77;;;7.28;;
49296;SDS011;35163;48.878;18.040;2022-10-16T00:30:26;16.05;;;7.43;;
49296;SDS011;35163;48.878;18.040;2022-10-16T00:32:54;14.65;;;7.32;;
49296;SDS011;35163;48.878;18.040;2022-10-16T00:35:21;15.90;;;7.68;;
49296;SDS011;35163;48.878;18.040;2022-10-16T00:37:47;19.70;;;8.63;;
49296;SDS011;35163;48.878;18.040;2022-10-16T00:40:14;13.98;;;7.03;;
49296;SDS011;35163;48.878;18.040;2022-10-16T00:42:41;16.55;;;8.07;;
49296;SDS011;35163;48.878;18.040;2022-10-16T00:45:08;18.88;;;8.07;;
49296;SDS011;35163;48.878;18.040;2022-10-16T00:47:39;13.55;;;7.07;;
49296;SDS011;35163;48.878;18.040;2022-10-16T00:52:41;22.52;;;7.57;;
49296;SDS011;35163;48.878;18.040;2022-10-16T00:55:12;18.55;;;7.50;;
49296;SDS011;35163;48.878;18.040;2022-10-16T00:57:39;19.50;;;7.60;;
49296;SDS011;35163;48.878;18.040;2022-10-16T01:00:07;16.95;;;7.65;;
49296;SDS011;35163;48.878;18.040;2022-10-16T01:02:35;16.30;;;7.53;;
49296;SDS011;35163;48.878;18.040;2022-10-16T01:05:02;12.98;;;6.90;;
49296;SDS011;35163;48.878;18.040;2022-10-16T01:07:41;13.98;;;7.25;;
49296;SDS011;35163;48.878;18.040;2022-10-16T01:10:30;18.42;;;7.95;;
49296;SDS011;35163;48.878;18.040;2022-10-16T01:13:07;17.45;;;7.72;;
49296;SDS011;35163;48.878;18.040;2022-10-16T01:15:42;16.90;;;8.43;;
49296;SDS011;35163;48.878;18.040;2022-10-16T01:18:42;16.25;;;6.80;;
49296;SDS011;35163;48.878;18.040;2022-10-16T01:21:13;17.17;;;7.68;;
49296;SDS011;35163;48.878;18.040;2022-10-16T01:26:57;20.00;;;7.38;;
49296;SDS011;35163;48.878;18.040;2022-10-16T01:32:50;15.02;;;7.63;;
49296;SDS011;35163;48.878;18.040;2022-10-16T01:37:42;17.02;;;7.70;;
49296;SDS011;35163;48.878;18.040;2022-10-16T01:40:12;15.85;;;7.25;;
49296;SDS011;35163;48.878;18.040;2022-10-16T01:42:48;13.63;;;7.00;;
49296;SDS011;35163;48.878;18.040;2022-10-16T01:45:19;16.98;;;7.53;;
49296;SDS011;35163;48.878;18.040;2022-10-16T01:47:47;13.60;;;6.95;;
49296;SDS011;35163;48.878;18.040;2022-10-16T01:50:18;16.88;;;7.00;;
49296;SDS011;35163;48.878;18.040;2022-10-16T01:52:48;14.20;;;7.20;;
49296;SDS011;35163;48.878;18.040;2022-10-16T01:55:19;16.30;;;7.38;;
49296;SDS011;35163;48.878;18.040;2022-10-16T01:57:50;13.95;;;7.15;;
49296;SDS011;35163;48.878;18.040;2022-10-16T02:00:19;18.90;;;8.30;;
49296;SDS011;35163;48.878;18.040;2022-10-16T02:02:49;13.50;;;6.85;;
49296;SDS011;35163;48.878;18.040;2022-10-16T02:05:24;19.48;;;8.02;;
49296;SDS011;35163;48.878;18.040;2022-10-16T02:07:55;15.10;;;7.60;;
49296;SDS011;35163;48.878;18.040;2022-10-16T02:10:25;13.65;;;7.45;;
49296;SDS011;35163;48.878;18.040;2022-10-16T02:12:59;16.77;;;8.25;;
49296;SDS011;35163;48.878;18.040;2022-10-16T02:15:31;21.73;;;7.88;;
49296;SDS011;35163;48.878;18.040;2022-10-16T02:17:57;13.75;;;6.97;;
49296;SDS011;35163;48.878;18.040;2022-10-16T02:20:25;14.50;;;7.03;;
49296;SDS011;35163;48.878;18.040;2022-10-16T02:22:54;16.05;;;6.90;;
49296;SDS011;35163;48.878;18.040;2022-10-16T02:25:34;15.88;;;7.97;;
49296;SDS011;35163;48.878;18.040;2022-10-16T02:28:06;19.98;;;8.43;;
49296;SDS011;35163;48.878;18.040;2022-10-16T02:30:42;22.02;;;9.60;;
49296;SDS011;35163;48.878;18.040;2022-10-16T02:33:36;15.38;;;8.60;;
49296;SDS011;35163;48.878;18.040;2022-10-16T02:36:05;18.15;;;9.60;;
49296;SDS011;35163;48.878;18.040;2022-10-16T02:38:33;20.63;;;9.90;;
49296;SDS011;35163;48.878;18.040;2022-10-16T02:41:00;17.08;;;8.75;;
49296;SDS011;35163;48.878;18.040;2022-10-16T02:43:27;19.33;;;9.50;;
49296;SDS011;35163;48.878;18.040;2022-10-16T02:45:54;15.43;;;8.15;;
49296;SDS011;35163;48.878;18.040;2022-10-16T02:48:20;16.38;;;9.02;;
49296;SDS011;35163;48.878;18.040;2022-10-16T02:50:47;18.73;;;9.32;;
49296;SDS011;35163;48.878;18.040;2022-10-16T02:53:13;16.85;;;8.65;;
49296;SDS011;35163;48.878;18.040;2022-10-16T02:55:40;16.35;;;9.02;;
49296;SDS011;35163;48.878;18.040;2022-10-16T02:58:06;13.57;;;8.40;;
49296;SDS011;35163;48.878;18.040;2022-10-16T03:00:33;17.73;;;8.52;;
49296;SDS011;35163;48.878;18.040;2022-10-16T03:03:00;17.92;;;9.02;;
49296;SDS011;35163;48.878;18.040;2022-10-16T03:05:26;17.45;;;9.77;;
49296;SDS011;35163;48.878;18.040;2022-10-16T03:07:53;19.27;;;9.90;;
49296;SDS011;35163;48.878;18.040;2022-10-16T03:10:19;16.90;;;9.55;;
49296;SDS011;35163;48.878;18.040;2022-10-16T03:12:46;15.00;;;9.05;;
49296;SDS011;35163;48.878;18.040;2022-10-16T03:15:12;20.02;;;9.43;;
49296;SDS011;35163;48.878;18.040;2022-10-16T03:17:39;18.90;;;10.18;;
49296;SDS011;35163;48.878;18.040;2022-10-16T03:20:06;20.75;;;10.85;;
49296;SDS011;35163;48.878;18.040;2022-10-16T03:22:32;21.35;;;9.27;;
49296;SDS011;35163;48.878;18.040;2022-10-16T03:24:59;17.55;;;9.50;;
49296;SDS011;35163;48.878;18.040;2022-10-16T03:27:26;22.30;;;8.68;;
49296;SDS011;35163;48.878;18.040;2022-10-16T03:29:53;18.63;;;8.02;;
49296;SDS011;35163;48.878;18.040;2022-10-16T03:32:19;15.63;;;8.85;;
49296;SDS011;35163;48.878;18.040;2022-10-16T03:34:46;16.60;;;8.20;;
49296;SDS011;35163;48.878;18.040;2022-10-16T03:37:12;16.70;;;8.43;;
49296;SDS011;35163;48.878;18.040;2022-10-16T03:39:39;21.25;;;8.98;;
49296;SDS011;35163;48.878;18.040;2022-10-16T03:42:06;14.55;;;7.43;;
49296;SDS011;35163;48.878;18.040;2022-10-16T03:44:32;19.70;;;8.32;;
49296;SDS011;35163;48.878;18.040;2022-10-16T03:46:59;19.73;;;9.45;;
49296;SDS011;35163;48.878;18.040;2022-10-16T03:49:25;20.67;;;8.85;;
49296;SDS011;35163;48.878;18.040;2022-10-16T03:51:52;19.13;;;8.93;;
49296;SDS011;35163;48.878;18.040;2022-10-16T03:54:19;17.92;;;8.43;;
49296;SDS011;35163;48.878;18.040;2022-10-16T03:56:45;18.02;;;8.85;;
49296;SDS011;35163;48.878;18.040;2022-10-16T03:59:12;25.52;;;9.60;;
49296;SDS011;35163;48.878;18.040;2022-10-16T04:01:38;19.63;;;7.95;;
49296;SDS011;35163;48.878;18.040;2022-10-16T04:04:05;15.68;;;8.38;;
49296;SDS011;35163;48.878;18.040;2022-10-16T04:06:31;19.38;;;8.65;;
49296;SDS011;35163;48.878;18.040;2022-10-16T04:08:58;17.80;;;8.63;;
49296;SDS011;35163;48.878;18.040;2022-10-16T04:11:24;17.10;;;7.88;;
49296;SDS011;35163;48.878;18.040;2022-10-16T04:13:51;14.85;;;7.50;;
49296;SDS011;35163;48.878;18.040;2022-10-16T04:16:18;18.77;;;8.43;;
49296;SDS011;35163;48.878;18.040;2022-10-16T04:18:44;22.50;;;8.43;;
49296;SDS011;35163;48.878;18.040;2022-10-16T04:21:11;19.58;;;7.75;;
49296;SDS011;35163;48.878;18.040;2022-10-16T04:23:38;14.23;;;7.45;;
49296;SDS011;35163;48.878;18.040;2022-10-16T04:26:04;17.70;;;8.10;;
49296;SDS011;35163;48.878;18.040;2022-10-16T04:28:31;16.25;;;8.57;;
49296;SDS011;35163;48.878;18.040;2022-10-16T04:30:58;15.35;;;8.23;;
49296;SDS011;35163;48.878;18.040;2022-10-16T04:33:31;17.35;;;9.02;;
49296;SDS011;35163;48.878;18.040;2022-10-16T04:35:58;15.07;;;8.23;;
49296;SDS011;35163;48.878;18.040;2022-10-16T04:38:26;17.60;;;7.45;;
49296;SDS011;35163;48.878;18.040;2022-10-16T04:40:53;20.63;;;8.88;;
49296;SDS011;35163;48.878;18.040;2022-10-16T04:43:19;19.30;;;9.00;;
49296;SDS011;35163;48.878;18.040;2022-10-16T04:45:46;18.70;;;8.60;;
49296;SDS011;35163;48.878;18.040;2022-10-16T04:48:13;17.48;;;8.18;;
49296;SDS011;35163;48.878;18.040;2022-10-16T04:50:40;17.33;;;8.32;;
49296;SDS011;35163;48.878;18.040;2022-10-16T04:53:07;17.50;;;8.48;;
49296;SDS011;35163;48.878;18.040;2022-10-16T04:55:34;19.00;;;8.23;;
49296;SDS011;35163;48.878;18.040;2022-10-16T04:58:00;21.15;;;8.13;;
49296;SDS011;35163;48.878;18.040;2022-10-16T05:00:27;15.68;;;7.80;;
49296;SDS011;35163;48.878;18.040;2022-10-16T05:02:54;18.25;;;9.32;;
49296;SDS011;35163;48.878;18.040;2022-10-16T05:05:20;18.33;;;9.02;;
49296;SDS011;35163;48.878;18.040;2022-10-16T05:07:47;18.27;;;7.65;;
49296;SDS011;35163;48.878;18.040;2022-10-16T05:10:15;18.52;;;8.65;;
49296;SDS011;35163;48.878;18.040;2022-10-16T05:12:42;15.77;;;8.48;;
49296;SDS011;35163;48.878;18.040;2022-10-16T05:15:08;18.02;;;9.45;;
49296;SDS011;35163;48.878;18.040;2022-10-16T05:17:35;18.80;;;9.35;;
49296;SDS011;35163;48.878;18.040;2022-10-16T05:20:07;18.65;;;9.52;;
49296;SDS011;35163;48.878;18.040;2022-10-16T05:22:34;20.25;;;9.93;;
49296;SDS011;35163;48.878;18.040;2022-10-16T05:25:00;18.50;;;10.25;;
49296;SDS011;35163;48.878;18.040;2022-10-16T05:27:27;22.73;;;9.73;;
49296;SDS011;35163;48.878;18.040;2022-10-16T05:29:54;19.10;;;9.75;;
49296;SDS011;35163;48.878;18.040;2022-10-16T05:32:21;22.35;;;10.57;;
49296;SDS011;35163;48.878;18.040;2022-10-16T05:34:47;21.30;;;10.52;;
49296;SDS011;35163;48.878;18.040;2022-10-16T05:37:14;19.23;;;9.45;;
49296;SDS011;35163;48.878;18.040;2022-10-16T05:39:41;16.60;;;10.00;;
49296;SDS011;35163;48.878;18.040;2022-10-16T05:42:07;16.73;;;8.90;;
49296;SDS011;35163;48.878;18.040;2022-10-16T05:44:34;17.50;;;9.57;;
49296;SDS011;35163;48.878;18.040;2022-10-16T05:47:00;16.10;;;8.80;;
49296;SDS011;35163;48.878;18.040;2022-10-16T05:49:27;22.95;;;9.57;;
49296;SDS011;35163;48.878;18.040;2022-10-16T05:51:53;18.35;;;9.63;;
49296;SDS011;35163;48.878;18.040;2022-10-16T05:54:20;19.38;;;9.60;;
49296;SDS011;35163;48.878;18.040;2022-10-16T05:56:47;17.73;;;9.15;;
49296;SDS011;35163;48.878;18.040;2022-10-16T05:59:13;15.90;;;8.90;;
49296;SDS011;35163;48.878;18.040;2022-10-16T06:01:40;15.60;;;8.98;;
49296;SDS011;35163;48.878;18.040;2022-10-16T06:04:07;20.77;;;9.27;;
49296;SDS011;35163;48.878;18.040;2022-10-16T06:06:39;20.13;;;8.70;;
49296;SDS011;35163;48.878;18.040;2022-10-16T06:09:09;17.73;;;8.80;;
49296;SDS011;35163;48.878;18.040;2022-10-16T06:11:36;17.88;;;8.70;;
49296;SDS011;35163;48.878;18.040;2022-10-16T06:14:03;21.35;;;10.60;;
49296;SDS011;35163;48.878;18.040;2022-10-16T06:16:33;22.27;;;11.05;;
49296;SDS011;35163;48.878;18.040;2022-10-16T06:19:02;15.77;;;9.32;;
49296;SDS011;35163;48.878;18.040;2022-10-16T06:21:32;22.77;;;8.68;;
49296;SDS011;35163;48.878;18.040;2022-10-16T06:23:59;17.63;;;9.07;;
49296;SDS011;35163;48.878;18.040;2022-10-16T06:26:26;21.40;;;8.63;;
49296;SDS011;35163;48.878;18.040;2022-10-16T06:28:56;17.20;;;8.18;;
49296;SDS011;35163;48.878;18.040;2022-10-16T06:31:24;23.63;;;8.02;;
49296;SDS011;35163;48.878;18.040;2022-10-16T06:33:57;17.02;;;8.48;;
49296;SDS011;35163;48.878;18.040;2022-10-16T06:36:24;21.23;;;8.70;;
49296;SDS011;35163;48.878;18.040;2022-10-16T06:38:51;17.33;;;8.18;;
49296;SDS011;35163;48.878;18.040;2022-10-16T06:41:18;19.45;;;8.63;;
49296;SDS011;35163;48.878;18.040;2022-10-16T06:43:47;18.40;;;8.68;;
49296;SDS011;35163;48.878;18.040;2022-10-16T06:46:15;17.60;;;8.30;;
49296;SDS011;35163;48.878;18.040;2022-10-16T06:48:44;15.50;;;8.10;;
49296;SDS011;35163;48.878;18.040;2022-10-16T06:51:12;19.60;;;8.80;;
49296;SDS011;35163;48.878;18.040;2022-10-16T06:53:46;16.67;;;8.18;;
49296;SDS011;35163;48.878;18.040;2022-10-16T06:56:31;15.13;;;8.13;;
49296;SDS011;35163;48.878;18.040;2022-10-16T06:58:58;16.48;;;8.73;;
49296;SDS011;35163;48.878;18.040;2022-10-16T07:01:25;16.85;;;8.15;;
49296;SDS011;35163;48.878;18.040;2022-10-16T07:03:53;20.55;;;9.27;;
49296;SDS011;35163;48.878;18.040;2022-10-16T07:06:21;18.67;;;8.45;;
49296;SDS011;35163;48.878;18.040;2022-10-16T07:08:49;16.45;;;8.48;;
49296;SDS011;35163;48.878;18.040;2022-10-16T07:11:16;18.55;;;9.82;;
49296;SDS011;35163;48.878;18.040;2022-10-16T07:13:45;17.77;;;8.70;;
49296;SDS011;35163;48.878;18.040;2022-10-16T07:16:21;16.92;;;8.27;;
49296;SDS011;35163;48.878;18.040;2022-10-16T07:18:53;25.63;;;8.73;;
49296;SDS011;35163;48.878;18.040;2022-10-16T07:21:26;17.58;;;9.13;;
49296;SDS011;35163;48.878;18.040;2022-10-16T07:23:58;16.73;;;8.60;;
49296;SDS011;35163;48.878;18.040;2022-10-16T07:26:28;17.88;;;8.13;;
49296;SDS011;35163;48.878;18.040;2022-10-16T07:28:56;18.63;;;9.20;;
49296;SDS011;35163;48.878;18.040;2022-10-16T07:31:23;15.55;;;8.70;;
49296;SDS011;35163;48.878;18.040;2022-10-16T07:33:50;16.90;;;8.48;;
49296;SDS011;35163;48.878;18.040;2022-10-16T07:36:18;18.17;;;8.60;;
49296;SDS011;35163;48.878;18.040;2022-10-16T07:38:46;17.60;;;8.80;;
49296;SDS011;35163;48.878;18.040;2022-10-16T07:41:14;25.20;;;13.43;;
49296;SDS011;35163;48.878;18.040;2022-10-16T07:43:49;17.90;;;8.88;;
49296;SDS011;35163;48.878;18.040;2022-10-16T07:48:44;19.92;;;9.00;;
49296;SDS011;35163;48.878;18.040;2022-10-16T07:51:14;18.52;;;7.53;;
49296;SDS011;35163;48.878;18.040;2022-10-16T07:53:42;16.63;;;8.32;;
49296;SDS011;35163;48.878;18.040;2022-10-16T07:56:09;16.88;;;8.60;;
49296;SDS011;35163;48.878;18.040;2022-10-16T07:58:36;18.65;;;8.43;;
49296;SDS011;35163;48.878;18.040;2022-10-16T08:01:04;16.27;;;9.15;;
49296;SDS011;35163;48.878;18.040;2022-10-16T08:03:32;16.92;;;8.77;;
49296;SDS011;35163;48.878;18.040;2022-10-16T08:06:00;13.48;;;7.82;;
49296;SDS011;35163;48.878;18.040;2022-10-16T08:08:26;14.77;;;8.57;;
49296;SDS011;35163;48.878;18.040;2022-10-16T08:10:54;14.15;;;7.90;;
49296;SDS011;35163;48.878;18.040;2022-10-16T08:13:21;17.65;;;7.88;;
49296;SDS011;35163;48.878;18.040;2022-10-16T08:15:47;17.00;;;8.73;;
49296;SDS011;35163;48.878;18.040;2022-10-16T08:18:15;19.45;;;8.10;;
49296;SDS011;35163;48.878;18.040;2022-10-16T08:20:43;15.65;;;8.80;;
49296;SDS011;35163;48.878;18.040;2022-10-16T08:23:10;15.98;;;8.05;;
49296;SDS011;35163;48.878;18.040;2022-10-16T08:25:38;21.27;;;8.98;;
49296;SDS011;35163;48.878;18.040;2022-10-16T08:28:06;17.92;;;8.30;;
49296;SDS011;35163;48.878;18.040;2022-10-16T08:30:35;16.02;;;8.45;;
49296;SDS011;35163;48.878;18.040;2022-10-16T08:33:02;15.15;;;8.55;;
49296;SDS011;35163;48.878;18.040;2022-10-16T08:35:29;19.08;;;10.02;;
49296;SDS011;35163;48.878;18.040;2022-10-16T08:37:55;15.32;;;8.93;;
49296;SDS011;35163;48.878;18.040;2022-10-16T08:40:24;18.67;;;8.73;;
49296;SDS011;35163;48.878;18.040;2022-10-16T08:49:03;17.55;;;8.10;;
49296;SDS011;35163;48.878;18.040;2022-10-16T08:51:25;16.33;;;8.60;;
49296;SDS011;35163;48.878;18.040;2022-10-16T08:56:22;18.75;;;8.98;;
49296;SDS011;35163;48.878;18.040;2022-10-16T08:58:51;19.88;;;8.80;;
49296;SDS011;35163;48.878;18.040;2022-10-16T09:01:45;18.13;;;9.43;;
49296;SDS011;35163;48.878;18.040;2022-10-16T09:07:03;14.55;;;8.52;;
49296;SDS011;35163;48.878;18.040;2022-10-16T09:12:47;18.70;;;8.57;;
49296;SDS011;35163;48.878;18.040;2022-10-16T09:15:24;13.82;;;8.50;;
49296;SDS011;35163;48.878;18.040;2022-10-16T09:17:57;14.35;;;8.35;;
49296;SDS011;35163;48.878;18.040;2022-10-16T09:25:31;17.13;;;7.82;;
49296;SDS011;35163;48.878;18.040;2022-10-16T09:27:58;15.25;;;9.00;;
49296;SDS011;35163;48.878;18.040;2022-10-16T09:30:26;16.27;;;7.72;;
49296;SDS011;35163;48.878;18.040;2022-10-16T09:32:55;16.80;;;7.80;;
49296;SDS011;35163;48.878;18.040;2022-10-16T09:35:31;14.82;;;8.27;;
49296;SDS011;35163;48.878;18.040;2022-10-16T09:38:02;15.13;;;7.53;;
49296;SDS011;35163;48.878;18.040;2022-10-16T09:40:30;17.73;;;9.25;;
49296;SDS011;35163;48.878;18.040;2022-10-16T09:48:22;19.35;;;8.77;;
49296;SDS011;35163;48.878;18.040;2022-10-16T09:50:55;18.08;;;8.38;;
49296;SDS011;35163;48.878;18.040;2022-10-16T09:53:23;18.08;;;8.32;;
49296;SDS011;35163;48.878;18.040;2022-10-16T09:55:51;16.33;;;8.05;;
49296;SDS011;35163;48.878;18.040;2022-10-16T09:58:23;16.50;;;7.95;;
49296;SDS011;35163;48.878;18.040;2022-10-16T10:00:51;14.73;;;8.23;;
49296;SDS011;35163;48.878;18.040;2022-10-16T10:06:03;16.85;;;7.97;;
49296;SDS011;35163;48.878;18.040;2022-10-16T10:08:53;15.70;;;8.73;;
49296;SDS011;35163;48.878;18.040;2022-10-16T10:14:27;21.42;;;8.82;;
49296;SDS011;35163;48.878;18.040;2022-10-16T10:17:08;21.60;;;8.98;;
49296;SDS011;35163;48.878;18.040;2022-10-16T10:19:41;21.48;;;9.38;;
49296;SDS011;35163;48.878;18.040;2022-10-16T10:22:21;15.30;;;8.95;;
49296;SDS011;35163;48.878;18.040;2022-10-16T10:30:44;14.05;;;7.65;;
49296;SDS011;35163;48.878;18.040;2022-10-16T10:36:16;18.63;;;8.10;;
49296;SDS011;35163;48.878;18.040;2022-10-16T10:38:57;14.73;;;7.75;;
49296;SDS011;35163;48.878;18.040;2022-10-16T10:55:25;25.20;;;10.80;;
49296;SDS011;35163;48.878;18.040;2022-10-16T10:58:12;19.05;;;10.75;;
49296;SDS011;35163;48.878;18.040;2022-10-16T11:00:55;24.57;;;9.17;;
49296;SDS011;35163;48.878;18.040;2022-10-16T11:06:28;20.02;;;10.48;;
49296;SDS011;35163;48.878;18.040;2022-10-16T11:11:38;19.15;;;9.18;;
49296;SDS011;35163;48.878;18.040;2022-10-16T11:14:22;20.35;;;10.32;;
49296;SDS011;35163;48.878;18.040;2022-10-16T11:16:56;24.40;;;13.00;;
49296;SDS011;35163;48.878;18.040;2022-10-16T11:24:55;18.30;;;9.40;;
49296;SDS011;35163;48.878;18.040;2022-10-16T11:27:47;20.27;;;10.02;;
49296;SDS011;35163;48.878;18.040;2022-10-16T11:38:12;22.42;;;11.40;;
49296;SDS011;35163;48.878;18.040;2022-10-16T11:40:41;22.63;;;11.73;;
49296;SDS011;35163;48.878;18.040;2022-10-16T11:43:15;19.35;;;10.40;;
49296;SDS011;35163;48.878;18.040;2022-10-16T11:45:58;22.00;;;11.25;;
49296;SDS011;35163;48.878;18.040;2022-10-16T11:48:41;20.08;;;11.07;;
49296;SDS011;35163;48.878;18.040;2022-10-16T11:56:55;25.08;;;11.80;;
49296;SDS011;35163;48.878;18.040;2022-10-16T11:59:30;20.23;;;11.50;;
49296;SDS011;35163;48.878;18.040;2022-10-16T12:04:56;18.67;;;10.88;;
49296;SDS011;35163;48.878;18.040;2022-10-16T12:07:39;16.35;;;10.75;;
49296;SDS011;35163;48.878;18.040;2022-10-16T12:10:20;17.88;;;10.48;;
49296;SDS011;35163;48.878;18.040;2022-10-16T12:12:53;17.92;;;10.88;;
49296;SDS011;35163;48.878;18.040;2022-10-16T12:15:21;27.08;;;12.50;;
49296;SDS011;35163;48.878;18.040;2022-10-16T12:18:23;19.40;;;10.73;;
49296;SDS011;35163;48.878;18.040;2022-10-16T12:20:54;20.98;;;10.55;;
49296;SDS011;35163;48.878;18.040;2022-10-16T12:23:25;21.40;;;12.85;;
49296;SDS011;35163;48.878;18.040;2022-10-16T12:25:56;20.23;;;11.50;;
49296;SDS011;35163;48.878;18.040;2022-10-16T12:28:34;21.23;;;11.32;;
49296;SDS011;35163;48.878;18.040;2022-10-16T12:31:02;25.90;;;10.23;;
49296;SDS011;35163;48.878;18.040;2022-10-16T12:33:32;21.20;;;11.57;;
49296;SDS011;35163;48.878;18.040;2022-10-16T12:36:02;17.70;;;10.82;;
49296;SDS011;35163;48.878;18.040;2022-10-16T12:38:38;19.33;;;10.85;;
49296;SDS011;35163;48.878;18.040;2022-10-16T12:41:23;18.05;;;10.82;;
49296;SDS011;35163;48.878;18.040;2022-10-16T12:43:54;24.00;;;12.05;;
49296;SDS011;35163;48.878;18.040;2022-10-16T12:46:23;19.45;;;11.23;;
49296;SDS011;35163;48.878;18.040;2022-10-16T12:51:40;20.75;;;10.43;;
49296;SDS011;35163;48.878;18.040;2022-10-16T12:54:13;21.23;;;11.38;;
49296;SDS011;35163;48.878;18.040;2022-10-16T13:08:18;23.17;;;10.38;;
49296;SDS011;35163;48.878;18.040;2022-10-16T13:13:41;18.67;;;11.00;;
49296;SDS011;35163;48.878;18.040;2022-10-16T13:22:19;18.83;;;9.70;;
49296;SDS011;35163;48.878;18.040;2022-10-16T13:27:29;19.02;;;10.10;;
49296;SDS011;35163;48.878;18.040;2022-10-16T13:32:53;18.33;;;9.88;;
49296;SDS011;35163;48.878;18.040;2022-10-16T13:35:28;25.67;;;14.88;;
49296;SDS011;35163;48.878;18.040;2022-10-16T13:38:31;23.95;;;12.23;;
49296;SDS011;35163;48.878;18.040;2022-10-16T13:40:55;22.00;;;11.00;;
49296;SDS011;35163;48.878;18.040;2022-10-16T13:44:05;20.00;;;10.65;;
49296;SDS011;35163;48.878;18.040;2022-10-16T13:46:18;22.17;;;11.13;;
49296;SDS011;35163;48.878;18.040;2022-10-16T13:49:10;20.50;;;10.05;;
49296;SDS011;35163;48.878;18.040;2022-10-16T13:51:56;20.33;;;9.77;;
49296;SDS011;35163;48.878;18.040;2022-10-16T13:54:24;16.98;;;9.60;;
49296;SDS011;35163;48.878;18.040;2022-10-16T13:56:52;17.73;;;9.75;;
49296;SDS011;35163;48.878;18.040;2022-10-16T13:59:35;32.92;;;11.02;;
49296;SDS011;35163;48.878;18.040;2022-10-16T14:05:03;20.48;;;11.93;;
49296;SDS011;35163;48.878;18.040;2022-10-16T14:07:35;30.67;;;16.17;;
49296;SDS011;35163;48.878;18.040;2022-10-16T14:10:05;22.13;;;13.50;;
49296;SDS011;35163;48.878;18.040;2022-10-16T14:12:44;48.13;;;12.93;;
49296;SDS011;35163;48.878;18.040;2022-10-16T14:15:17;22.73;;;12.55;;
49296;SDS011;35163;48.878;18.040;2022-10-16T14:17:45;29.67;;;14.35;;
49296;SDS011;35163;48.878;18.040;2022-10-16T14:20:17;18.60;;;11.43;;
49296;SDS011;35163;48.878;18.040;2022-10-16T14:22:44;20.27;;;10.88;;
49296;SDS011;35163;48.878;18.040;2022-10-16T14:27:45;21.80;;;11.95;;
49296;SDS011;35163;48.878;18.040;2022-10-16T14:30:22;20.67;;;10.75;;
49296;SDS011;35163;48.878;18.040;2022-10-16T14:32:59;15.88;;;9.15;;
49296;SDS011;35163;48.878;18.040;2022-10-16T14:37:59;23.60;;;11.70;;
49296;SDS011;35163;48.878;18.040;2022-10-16T14:40:29;16.50;;;9.65;;
49296;SDS011;35163;48.878;18.040;2022-10-16T14:42:58;19.55;;;9.88;;
49296;SDS011;35163;48.878;18.040;2022-10-16T14:45:27;17.85;;;10.23;;
49296;SDS011;35163;48.878;18.040;2022-10-16T14:47:57;17.73;;;9.98;;
49296;SDS011;35163;48.878;18.040;2022-10-16T14:50:26;18.33;;;9.77;;
49296;SDS011;35163;48.878;18.040;2022-10-16T14:52:54;17.55;;;10.18;;
49296;SDS011;35163;48.878;18.040;2022-10-16T14:55:21;16.10;;;9.32;;
49296;SDS011;35163;48.878;18.040;2022-10-16T14:57:48;17.30;;;9.27;;
49296;SDS011;35163;48.878;18.040;2022-10-16T15:00:18;22.05;;;10.40;;
49296;SDS011;35163;48.878;18.040;2022-10-16T15:02:48;20.27;;;9.82;;
49296;SDS011;35163;48.878;18.040;2022-10-16T15:07:42;21.73;;;10.40;;
49296;SDS011;35163;48.878;18.040;2022-10-16T15:10:08;18.52;;;9.90;;
49296;SDS011;35163;48.878;18.040;2022-10-16T15:12:36;22.52;;;9.63;;
49296;SDS011;35163;48.878;18.040;2022-10-16T15:15:23;15.48;;;9.50;;
49296;SDS011;35163;48.878;18.040;2022-10-16T15:17:49;15.25;;;9.02;;
49296;SDS011;35163;48.878;18.040;2022-10-16T15:20:25;15.35;;;9.10;;
49296;SDS011;35163;48.878;18.040;2022-10-16T15:22:53;17.88;;;9.43;;
49296;SDS011;35163;48.878;18.040;2022-10-16T15:27:48;18.23;;;9.13;;
49296;SDS011;35163;48.878;18.040;2022-10-16T15:30:15;15.50;;;8.80;;
49296;SDS011;35163;48.878;18.040;2022-10-16T15:32:42;15.38;;;9.40;;
49296;SDS011;35163;48.878;18.040;2022-10-16T15:35:08;15.68;;;9.05;;
49296;SDS011;35163;48.878;18.040;2022-10-16T15:37:35;18.13;;;10.30;;
49296;SDS011;35163;48.878;18.040;2022-10-16T15:40:02;18.25;;;9.27;;
49296;SDS011;35163;48.878;18.040;2022-10-16T15:42:29;15.90;;;8.98;;
49296;SDS011;35163;48.878;18.040;2022-10-16T15:44:56;16.98;;;9.10;;
49296;SDS011;35163;48.878;18.040;2022-10-16T15:47:22;18.83;;;10.18;;
49296;SDS011;35163;48.878;18.040;2022-10-16T15:49:49;18.33;;;8.93;;
49296;SDS011;35163;48.878;18.040;2022-10-16T15:52:16;18.52;;;9.98;;
49296;SDS011;35163;48.878;18.040;2022-10-16T15:54:43;16.85;;;9.65;;
49296;SDS011;35163;48.878;18.040;2022-10-16T15:57:09;15.85;;;9.38;;
49296;SDS011;35163;48.878;18.040;2022-10-16T15:59:36;18.90;;;9.27;;
49296;SDS011;35163;48.878;18.040;2022-10-16T16:02:03;19.48;;;9.32;;
49296;SDS011;35163;48.878;18.040;2022-10-16T16:04:29;17.38;;;10.00;;
49296;SDS011;35163;48.878;18.040;2022-10-16T16:07:08;19.88;;;9.98;;
49296;SDS011;35163;48.878;18.040;2022-10-16T16:09:35;18.65;;;10.45;;
49296;SDS011;35163;48.878;18.040;2022-10-16T16:12:02;21.42;;;10.38;;
49296;SDS011;35163;48.878;18.040;2022-10-16T16:14:29;18.40;;;10.30;;
49296;SDS011;35163;48.878;18.040;2022-10-16T16:16:56;16.58;;;9.10;;
49296;SDS011;35163;48.878;18.040;2022-10-16T16:19:23;17.25;;;9.23;;
49296;SDS011;35163;48.878;18.040;2022-10-16T16:21:50;20.00;;;9.82;;
49296;SDS011;35163;48.878;18.040;2022-10-16T16:24:16;21.92;;;9.80;;
49296;SDS011;35163;48.878;18.040;2022-10-16T16:26:43;18.92;;;9.55;;
49296;SDS011;35163;48.878;18.040;2022-10-16T16:29:13;15.27;;;8.95;;
49296;SDS011;35163;48.878;18.040;2022-10-16T16:31:42;17.92;;;9.13;;
49296;SDS011;35163;48.878;18.040;2022-10-16T16:34:09;20.80;;;9.57;;
49296;SDS011;35163;48.878;18.040;2022-10-16T16:36:36;21.65;;;10.13;;
49296;SDS011;35163;48.878;18.040;2022-10-16T16:39:06;15.82;;;9.40;;
49296;SDS011;35163;48.878;18.040;2022-10-16T16:41:33;20.95;;;10.52;;
49296;SDS011;35163;48.878;18.040;2022-10-16T16:44:04;18.50;;;9.82;;
49296;SDS011;35163;48.878;18.040;2022-10-16T16:46:32;20.88;;;9.82;;
49296;SDS011;35163;48.878;18.040;2022-10-16T16:49:00;19.45;;;10.40;;
49296;SDS011;35163;48.878;18.040;2022-10-16T16:51:27;17.98;;;9.82;;